Time;durP1;ratioP1;P1;durP2;ratioP2;P2;SDS_P1;SDS_P2;PMS_P1;PMS_P2;Temp;Humidity;BMP_temperature;BMP_pressure;BME280_temperature;BME280_humidity;BME280_pressure;Samples;Min_cycle;Max_cycle;Signal;HPM_P1;HPM_P2
2023/05/11 00:00:53;;;;;;;20.20;14.97;;;14.20;99.90;;;;;;5099267;28;20544;-83
2023/05/11 00:03:20;;;;;;;18.87;15.10;;;14.10;99.90;;;;;;5098485;28;20471;-83
2023/05/11 00:05:48;;;;;;;17.70;14.63;;;14.20;99.90;;;;;;5103404;28;20476;-83
2023/05/11 00:08:16;;;;;;;17.90;15.87;;;14.30;1.00;;;;;;5099522;28;20497;-83
2023/05/11 00:10:46;;;;;;;18.60;16.37;;;14.10;99.90;;;;;;5099283;28;20698;-84
2023/05/11 00:13:13;;;;;;;17.17;15.43;;;14.10;1.00;;;;;;5110545;28;20511;-81
2023/05/11 00:15:40;;;;;;;17.40;14.70;;;14.00;1.00;;;;;;5117276;28;20492;-82
2023/05/11 00:18:07;;;;;;;17.77;15.93;;;14.00;1.00;;;;;;5101390;28;20448;-83
2023/05/11 00:20:34;;;;;;;19.63;15.97;;;14.00;1.00;;;;;;5098120;28;20444;-84
2023/05/11 00:23:01;;;;;;;19.77;14.17;;;13.90;1.00;;;;;;5098058;28;20472;-83
2023/05/11 00:25:29;;;;;;;19.90;15.57;;;13.90;1.00;;;;;;5097412;28;20452;-83
2023/05/11 00:27:56;;;;;;;20.43;17.10;;;13.90;1.00;;;;;;5097631;28;20487;-83
2023/05/11 00:30:23;;;;;;;17.67;15.83;;;13.90;1.00;;;;;;5097717;28;20451;-83
2023/05/11 00:32:50;;;;;;;18.80;16.87;;;14.00;1.00;;;;;;5097625;28;20492;-84
2023/05/11 00:35:17;;;;;;;19.77;15.73;;;14.00;99.90;;;;;;5097391;28;20487;-84
2023/05/11 00:37:44;;;;;;;17.67;15.77;;;14.00;99.90;;;;;;5099316;28;20476;-83
2023/05/11 00:40:11;;;;;;;17.90;14.27;;;13.80;99.90;;;;;;5103387;28;20540;-84
2023/05/11 00:42:39;;;;;;;18.67;16.47;;;14.10;99.90;;;;;;5107365;28;20562;-83
2023/05/11 00:45:07;;;;;;;18.20;15.43;;;14.10;99.90;;;;;;5111080;28;20451;-83
2023/05/11 00:47:35;;;;;;;19.10;16.10;;;14.00;99.90;;;;;;5111793;28;20447;-83
2023/05/11 00:50:02;;;;;;;22.47;16.80;;;13.90;99.90;;;;;;5108982;28;20475;-83
2023/05/11 00:52:29;;;;;;;18.50;15.90;;;13.70;1.00;;;;;;5105449;28;20528;-83
2023/05/11 00:54:56;;;;;;;20.83;16.10;;;13.80;99.90;;;;;;5104968;28;20505;-83
2023/05/11 00:57:23;;;;;;;22.60;15.90;;;13.90;1.00;;;;;;5103558;28;20455;-83
2023/05/11 00:59:51;;;;;;;19.53;16.80;;;13.90;1.00;;;;;;5106047;28;20476;-83
2023/05/11 01:02:18;;;;;;;20.83;17.13;;;13.80;1.00;;;;;;5110179;28;20539;-82
2023/05/11 01:04:45;;;;;;;22.30;17.63;;;13.80;1.00;;;;;;5113376;28;20440;-82
2023/05/11 01:07:19;;;;;;;23.20;18.23;;;13.80;1.00;;;;;;5113093;28;20511;-83
2023/05/11 01:09:59;;;;;;;21.00;16.53;;;13.80;1.00;;;;;;5112654;28;20433;-83
2023/05/11 01:12:33;;;;;;;20.57;16.60;;;13.70;1.00;;;;;;5111640;28;20931;-82
2023/05/11 01:15:08;;;;;;;20.87;16.50;;;13.70;1.00;;;;;;5107283;28;20515;-83
2023/05/11 01:17:42;;;;;;;17.90;15.37;;;13.80;1.00;;;;;;5102313;28;20436;-84
2023/05/11 01:20:15;;;;;;;21.03;16.97;;;13.80;99.90;;;;;;5109199;28;20428;-84
2023/05/11 01:23:05;;;;;;;20.33;16.70;;;13.70;1.00;;;;;;5104345;28;20475;-84
2023/05/11 01:25:47;;;;;;;18.70;16.77;;;13.60;99.90;;;;;;5101054;28;20448;-84
2023/05/11 01:28:25;;;;;;;17.50;15.70;;;13.60;1.00;;;;;;5101894;28;20439;-84
2023/05/11 01:30:57;;;;;;;19.50;17.43;;;13.60;1.00;;;;;;5101555;28;20456;-84
2023/05/11 01:33:31;;;;;;;24.60;17.17;;;13.60;1.00;;;;;;5103107;28;20491;-84
2023/05/11 01:36:11;;;;;;;22.30;16.70;;;13.50;1.00;;;;;;5113858;28;20428;-84
2023/05/11 01:38:41;;;;;;;21.33;16.50;;;13.40;54.60;;;;;;5112628;28;20428;-84
2023/05/11 01:41:13;;;;;;;18.73;16.60;;;13.50;1.00;;;;;;5103860;28;20499;-84
2023/05/11 01:43:41;;;;;;;23.80;18.40;;;13.50;1.00;;;;;;5109688;28;20505;-83
2023/05/11 01:46:12;;;;;;;18.10;16.20;;;13.50;1.00;;;;;;5099864;28;21029;-83
2023/05/11 01:48:42;;;;;;;19.40;15.73;;;13.40;1.00;;;;;;5101237;28;20451;-83
2023/05/11 01:51:10;;;;;;;18.90;16.53;;;13.40;1.00;;;;;;5099841;28;20958;-83
2023/05/11 01:53:38;;;;;;;26.13;16.77;;;13.40;1.00;;;;;;5099847;28;20572;-83
2023/05/11 01:56:07;;;;;;;17.37;15.43;;;13.30;1.00;;;;;;5107113;28;20856;-84
2023/05/11 01:58:36;;;;;;;17.27;15.50;;;13.30;1.00;;;;;;5106376;28;20448;-84
2023/05/11 02:01:04;;;;;;;21.27;17.10;;;13.20;25.10;;;;;;5102670;28;20830;-84
2023/05/11 02:03:34;;;;;;;18.20;16.30;;;13.00;99.90;;;;;;5101688;28;20551;-84
2023/05/11 02:06:02;;;;;;;18.53;16.53;;;13.00;99.90;;;;;;5101358;28;20437;-84
2023/05/11 02:08:30;;;;;;;18.53;16.13;;;13.00;99.90;;;;;;5101187;28;20531;-84
2023/05/11 02:10:59;;;;;;;19.17;16.73;;;12.90;99.90;;;;;;5101621;28;20448;-84
2023/05/11 02:13:27;;;;;;;19.07;16.90;;;12.90;99.90;;;;;;5102075;28;20571;-84
2023/05/11 02:15:57;;;;;;;17.23;15.53;;;12.80;99.90;;;;;;5108401;28;20440;-83
2023/05/11 02:18:24;;;;;;;18.40;16.00;;;12.90;99.90;;;;;;5119783;28;20428;-83
2023/05/11 02:20:53;;;;;;;18.10;16.20;;;12.80;99.90;;;;;;5111663;28;20900;-84
2023/05/11 02:23:21;;;;;;;20.07;17.07;;;12.80;99.90;;;;;;5117296;28;20512;-84
2023/05/11 02:25:49;;;;;;;22.57;15.70;;;12.80;99.90;;;;;;5112729;28;20827;-83
2023/05/11 02:28:15;;;;;;;18.03;16.33;;;12.60;99.90;;;;;;5119024;28;20415;-84
2023/05/11 02:30:47;;;;;;;18.07;16.17;;;12.70;99.90;;;;;;5119719;28;20446;-84
2023/05/11 02:33:19;;;;;;;18.50;16.07;;;12.70;99.90;;;;;;5117771;28;20476;-83
2023/05/11 02:35:47;;;;;;;16.57;14.97;;;12.80;99.90;;;;;;5119884;28;20452;-84
2023/05/11 02:38:17;;;;;;;16.20;14.50;;;12.70;99.90;;;;;;5114134;28;20464;-83
2023/05/11 02:40:47;;;;;;;17.87;16.17;;;12.70;99.90;;;;;;5101297;28;20517;-83
2023/05/11 02:43:22;;;;;;;19.07;16.30;;;12.60;99.90;;;;;;5099670;28;20532;-83
2023/05/11 02:45:52;;;;;;;17.90;16.10;;;12.50;99.90;;;;;;5100160;28;20437;-83
2023/05/11 02:48:23;;;;;;;17.20;15.40;;;12.50;99.90;;;;;;5099350;28;20456;-83
2023/05/11 02:50:53;;;;;;;18.30;14.40;;;12.50;99.90;;;;;;5099207;28;20436;-83
2023/05/11 02:53:25;;;;;;;17.97;16.37;;;12.30;99.90;;;;;;5100065;28;20997;-83
2023/05/11 02:55:54;;;;;;;18.10;15.23;;;12.40;99.90;;;;;;5107618;28;20432;-83
2023/05/11 02:58:22;;;;;;;16.13;14.50;;;12.40;99.90;;;;;;5100994;28;20441;-84
2023/05/11 03:00:49;;;;;;;23.07;14.97;;;12.40;99.90;;;;;;5100490;28;20448;-84
2023/05/11 03:03:16;;;;;;;16.87;14.73;;;12.40;66.40;;;;;;5103021;28;20460;-83
2023/05/11 03:05:43;;;;;;;16.10;14.50;;;12.60;1.00;;;;;;5102996;28;20456;-82
2023/05/11 03:08:10;;;;;;;14.97;13.67;;;12.70;1.00;;;;;;5104031;28;20448;-83
2023/05/11 03:10:40;;;;;;;14.53;13.13;;;12.70;99.90;;;;;;5110839;28;20451;-83
2023/05/11 03:13:07;;;;;;;16.80;14.93;;;12.30;58.00;;;;;;5135329;22;20560;-86
2023/05/11 03:15:35;;;;;;;15.60;14.03;;;12.60;1.00;;;;;;5105318;28;20464;-87
2023/05/11 03:18:05;;;;;;;16.80;14.57;;;12.60;1.00;;;;;;5104100;28;20444;-87
2023/05/11 03:20:35;;;;;;;15.17;13.60;;;12.60;1.00;;;;;;5103938;28;20512;-86
2023/05/11 03:23:06;;;;;;;14.40;12.90;;;12.80;1.00;;;;;;5103657;28;20494;-86
2023/05/11 03:25:33;;;;;;;14.87;13.37;;;12.20;1.00;;;;;;5103100;28;20499;-87
2023/05/11 03:28:02;;;;;;;14.30;12.90;;;12.20;1.00;;;;;;5102214;28;20458;-87
2023/05/11 03:30:31;;;;;;;14.20;12.80;;;12.50;1.00;;;;;;5102364;28;20516;-87
2023/05/11 03:32:58;;;;;;;14.40;13.10;;;12.60;99.90;;;;;;5102706;28;20943;-86
2023/05/11 03:35:29;;;;;;;14.43;12.57;;;12.50;52.10;;;;;;5103393;28;20487;-87
2023/05/11 03:37:58;;;;;;;13.37;12.07;;;12.50;1.00;;;;;;5103209;28;20425;-85
2023/05/11 03:40:26;;;;;;;13.80;12.40;;;12.60;1.00;;;;;;5104238;28;20472;-86
2023/05/11 03:42:55;;;;;;;17.23;13.63;;;12.50;1.00;;;;;;5107950;28;20813;-86
2023/05/11 03:45:25;;;;;;;14.03;12.13;;;12.60;1.00;;;;;;5110022;28;20897;-85
2023/05/11 03:47:55;;;;;;;14.53;13.23;;;12.70;1.00;;;;;;5114082;28;20446;-87
2023/05/11 03:50:22;;;;;;;13.23;11.93;;;12.60;1.00;;;;;;5118371;28;20495;-87
2023/05/11 03:52:49;;;;;;;14.50;13.10;;;12.60;1.00;;;;;;5119252;28;20437;-87
2023/05/11 03:55:16;;;;;;;15.23;12.60;;;12.60;99.90;;;;;;5119020;28;20451;-88
2023/05/11 03:57:43;;;;;;;15.53;13.93;;;12.50;99.90;;;;;;5118817;28;20475;-86
2023/05/11 04:00:11;;;;;;;13.90;12.60;;;12.50;99.90;;;;;;5118878;28;20420;-87
2023/05/11 04:02:39;;;;;;;16.37;13.20;;;12.50;71.10;;;;;;5118921;28;20550;-87
2023/05/11 04:05:08;;;;;;;14.73;13.20;;;12.50;99.90;;;;;;5117870;28;20512;-84
2023/05/11 04:07:37;;;;;;;13.70;12.40;;;12.50;1.00;;;;;;5117257;28;20449;-85
2023/05/11 04:10:04;;;;;;;17.17;12.83;;;12.50;99.90;;;;;;5117532;28;20444;-85
2023/05/11 04:12:32;;;;;;;12.90;11.60;;;12.60;99.90;;;;;;5117763;28;20440;-87
2023/05/11 04:14:58;;;;;;;13.20;11.90;;;12.90;99.90;;;;;;5119204;28;20496;-87
2023/05/11 04:17:25;;;;;;;14.30;12.83;;;12.70;99.90;;;;;;5118875;28;20500;-87
2023/05/11 04:19:53;;;;;;;14.43;13.07;;;12.50;99.90;;;;;;5106250;28;20444;-88
2023/05/11 04:22:20;;;;;;;14.40;11.90;;;12.50;99.90;;;;;;5102050;28;20885;-87
2023/05/11 04:24:48;;;;;;;13.80;12.40;;;12.50;99.90;;;;;;5107317;28;20468;-86
2023/05/11 04:27:15;;;;;;;17.93;16.07;;;12.40;1.00;;;;;;5106312;28;20456;-88
2023/05/11 04:29:44;;;;;;;14.13;12.93;;;;;;;;;;5107840;28;20459;-88
2023/05/11 04:32:15;;;;;;;19.60;12.83;;;12.60;1.00;;;;;;5102204;28;20876;-88
2023/05/11 04:34:52;;;;;;;13.60;12.17;;;12.70;1.00;;;;;;5101848;28;20484;-88
2023/05/11 04:37:21;;;;;;;15.03;13.63;;;12.50;1.00;;;;;;5102470;28;20443;-88
2023/05/11 04:45:58;;;;;;;13.30;12.17;;;12.70;99.90;;;;;;5101416;28;20448;-88
2023/05/11 04:48:31;;;;;;;15.53;13.80;;;11.60;99.90;;;;;;5106615;28;20535;-88
2023/05/11 04:51:14;;;;;;;13.80;12.50;;;12.70;34.60;;;;;;5108816;28;20441;-88
2023/05/11 04:54:06;;;;;;;13.67;12.57;;;12.70;93.80;;;;;;5114360;28;20493;-88
2023/05/11 04:56:40;;;;;;;14.07;12.67;;;12.80;30.50;;;;;;5102348;28;20447;-88
2023/05/11 04:59:10;;;;;;;15.30;13.50;;;;;;;;;;5100471;28;20450;-88
2023/05/11 05:01:40;;;;;;;13.23;11.93;;;12.90;1.00;;;;;;5100425;28;20451;-88
2023/05/11 05:04:11;;;;;;;13.30;11.87;;;12.90;1.00;;;;;;5099895;28;20547;-88
2023/05/11 05:06:42;;;;;;;15.03;12.60;;;13.00;1.00;;;;;;5101174;28;20497;-88
2023/05/11 05:09:21;;;;;;;13.70;12.40;;;12.80;1.00;;;;;;5103244;28;20448;-88
2023/05/11 05:11:58;;;;;;;14.33;12.30;;;13.10;99.90;;;;;;5109248;28;20532;-88
2023/05/11 05:14:30;;;;;;;14.33;11.80;;;13.20;99.90;;;;;;5112311;28;20510;-88
2023/05/11 05:17:07;;;;;;;11.73;10.63;;;13.30;99.90;;;;;;5112701;28;20479;-88
2023/05/11 05:19:39;;;;;;;13.07;11.23;;;13.30;99.90;;;;;;5101292;28;20486;-87
2023/05/11 05:22:06;;;;;;;14.13;11.23;;;;;;;;;;5102837;28;20480;-88
2023/05/11 05:24:35;;;;;;;12.17;11.00;;;13.40;33.80;;;;;;5102026;28;20535;-88
2023/05/11 05:27:02;;;;;;;13.53;12.23;;;13.40;27.30;;;;;;5102469;28;20449;-87
2023/05/11 05:29:29;;;;;;;13.83;10.97;;;13.50;1.00;;;;;;5103174;28;20535;-86
2023/05/11 05:31:57;;;;;;;12.87;11.67;;;13.60;1.00;;;;;;5104289;28;20550;-86
2023/05/11 05:34:24;;;;;;;13.60;11.50;;;13.70;1.00;;;;;;5103237;28;20490;-87
2023/05/11 05:36:51;;;;;;;12.27;11.17;;;13.80;1.00;;;;;;5102795;28;20460;-84
2023/05/11 05:39:18;;;;;;;12.20;9.80;;;13.90;1.00;;;;;;5104434;28;20483;-83
2023/05/11 05:41:46;;;;;;;12.70;10.93;;;14.00;1.00;;;;;;5102295;28;20637;-82
2023/05/11 05:44:13;;;;;;;10.63;9.60;;;14.20;99.90;;;;;;5105083;28;20460;-86
2023/05/11 05:46:40;;;;;;;11.90;10.23;;;14.10;1.00;;;;;;5104288;28;20563;-85
2023/05/11 05:49:11;;;;;;;12.47;11.27;;;14.50;1.00;;;;;;5104380;28;20534;-86
2023/05/11 05:51:38;;;;;;;13.83;10.17;;;14.30;1.00;;;;;;5104181;28;20485;-84
2023/05/11 05:54:04;;;;;;;11.27;9.70;;;14.50;1.00;;;;;;5107022;28;20463;-86
2023/05/11 05:56:33;;;;;;;9.77;8.77;;;14.60;1.00;;;;;;5116873;28;20544;-85
2023/05/11 05:59:02;;;;;;;12.30;10.80;;;14.60;1.00;;;;;;5117568;28;20479;-86
2023/05/11 06:01:28;;;;;;;13.93;8.53;;;14.60;1.00;;;;;;5114590;28;20444;-85
2023/05/11 06:03:55;;;;;;;12.67;8.43;;;14.70;1.00;;;;;;5102521;28;20460;-85
2023/05/11 06:06:22;;;;;;;8.57;7.77;;;14.80;1.00;;;;;;5101158;28;20444;-86
2023/05/11 06:08:49;;;;;;;9.23;8.40;;;15.10;1.00;;;;;;5103402;28;20448;-87
2023/05/11 06:11:20;;;;;;;8.80;8.00;;;15.00;1.00;;;;;;5104639;28;20448;-87
2023/05/11 06:13:53;;;;;;;9.60;8.77;;;15.10;1.00;;;;;;5104493;28;20484;-87
2023/05/11 06:16:25;;;;;;;9.37;8.57;;;15.20;1.00;;;;;;5115414;28;20543;-85
2023/05/11 06:18:52;;;;;;;8.47;6.53;;;15.30;1.00;;;;;;5110504;28;20425;-86
2023/05/11 06:21:19;;;;;;;8.83;7.63;;;15.30;1.00;;;;;;5109384;28;20471;-87
2023/05/11 06:23:46;;;;;;;8.07;7.37;;;15.40;1.00;;;;;;5108534;28;20531;-85
2023/05/11 06:26:13;;;;;;;10.23;8.00;;;15.50;1.00;;;;;;5111639;28;20472;-87
2023/05/11 06:28:40;;;;;;;7.47;6.77;;;15.60;1.00;;;;;;5111763;28;20448;-87
2023/05/11 06:31:07;;;;;;;7.70;7.00;;;15.60;1.00;;;;;;5108641;28;20457;-87
2023/05/11 06:33:35;;;;;;;8.10;7.50;;;15.80;1.00;;;;;;5100338;28;20468;-87
2023/05/11 06:36:05;;;;;;;9.10;8.20;;;16.00;1.00;;;;;;5100820;28;20586;-87
2023/05/11 06:38:32;;;;;;;7.50;6.90;;;16.10;1.00;;;;;;5106766;28;20502;-87
2023/05/11 06:40:59;;;;;;;9.03;8.13;;;16.10;1.00;;;;;;5110494;28;20464;-87
2023/05/11 06:43:26;;;;;;;9.60;7.97;;;16.30;1.00;;;;;;5101926;28;20555;-86
2023/05/11 06:45:53;;;;;;;6.90;6.40;;;;;;;;;;5102602;28;20483;-86
2023/05/11 06:48:22;;;;;;;6.00;5.40;;;16.30;99.90;;;;;;5102098;28;20444;-87
2023/05/11 06:50:50;;;;;;;5.40;5.00;;;16.30;1.00;;;;;;5101128;28;20444;-86
2023/05/11 06:53:17;;;;;;;6.03;5.17;;;16.40;99.90;;;;;;5101105;28;20492;-86
2023/05/11 06:55:44;;;;;;;7.40;4.83;;;16.50;99.90;;;;;;5101091;28;20489;-86
2023/05/11 06:58:11;;;;;;;5.10;4.60;;;16.60;99.90;;;;;;5101887;28;20452;-86
2023/05/11 07:00:38;;;;;;;8.87;4.90;;;16.60;99.90;;;;;;5101924;28;20872;-85
2023/05/11 07:03:05;;;;;;;5.43;4.90;;;17.00;1.00;;;;;;5111726;28;20468;-83
2023/05/11 07:05:32;;;;;;;5.63;5.23;;;16.70;99.90;;;;;;5119142;28;20456;-83
2023/05/11 07:08:00;;;;;;;5.67;5.03;;;16.80;99.90;;;;;;5119207;28;20440;-83
2023/05/11 07:10:27;;;;;;;5.80;4.67;;;16.80;99.90;;;;;;5111919;28;20476;-86
2023/05/11 07:12:54;;;;;;;6.10;4.73;;;16.90;1.00;;;;;;5109583;28;20471;-83
2023/05/11 07:15:21;;;;;;;5.93;5.30;;;17.00;99.90;;;;;;5115936;28;20473;-84
2023/05/11 07:17:48;;;;;;;6.37;5.03;;;17.10;99.90;;;;;;5119158;28;20429;-83
2023/05/11 07:20:16;;;;;;;5.67;5.17;;;17.20;99.90;;;;;;5117607;28;20437;-85
2023/05/11 07:22:43;;;;;;;11.17;5.53;;;17.30;99.90;;;;;;5112282;28;20482;-85
2023/05/11 07:25:11;;;;;;;8.80;5.70;;;17.50;1.00;;;;;;5114709;28;20471;-85
2023/05/11 07:27:38;;;;;;;5.67;5.10;;;17.50;99.90;;;;;;5116459;28;20448;-85
2023/05/11 07:30:07;;;;;;;5.53;4.83;;;17.60;1.00;;;;;;5116294;28;20663;-85
2023/05/11 07:32:34;;;;;;;5.90;4.50;;;17.50;99.90;;;;;;5112952;28;20429;-85
2023/05/11 07:35:02;;;;;;;4.93;4.50;;;17.50;99.90;;;;;;5114433;28;20500;-84
2023/05/11 07:37:30;;;;;;;6.33;4.37;;;17.70;99.90;;;;;;5109629;28;20455;-86
2023/05/11 07:39:57;;;;;;;6.87;5.07;;;17.70;99.90;;;;;;5104925;28;20453;-86
2023/05/11 07:42:25;;;;;;;5.37;4.87;;;17.90;99.90;;;;;;5106909;28;20466;-86
2023/05/11 07:44:53;;;;;;;5.40;5.00;;;17.90;1.00;;;;;;5103586;28;20468;-86
2023/05/11 07:47:20;;;;;;;5.03;4.53;;;18.00;99.90;;;;;;5101050;28;20480;-86
2023/05/11 07:49:47;;;;;;;6.73;5.27;;;18.00;99.90;;;;;;5103926;28;20531;-86
2023/05/11 07:52:14;;;;;;;5.77;4.80;;;18.10;99.90;;;;;;5105756;28;20479;-86
2023/05/11 07:54:41;;;;;;;4.70;4.40;;;18.10;99.90;;;;;;5106293;28;20502;-86
2023/05/11 07:57:10;;;;;;;7.27;5.10;;;18.20;99.90;;;;;;5106085;28;20543;-85
2023/05/11 07:59:38;;;;;;;6.20;4.87;;;18.30;99.90;;;;;;5106706;28;20444;-86
2023/05/11 08:02:06;;;;;;;8.70;5.20;;;18.30;1.00;;;;;;5108870;28;20458;-85
2023/05/11 08:04:34;;;;;;;8.73;4.67;;;18.40;99.90;;;;;;5106653;28;20465;-85
2023/05/11 08:07:01;;;;;;;5.90;4.23;;;18.30;99.90;;;;;;5118158;28;20444;-85
2023/05/11 08:09:28;;;;;;;6.90;6.10;;;18.40;99.90;;;;;;5119528;28;20444;-87
2023/05/11 08:12:00;;;;;;;4.83;4.43;;;18.40;99.90;;;;;;5120598;28;20451;-86
2023/05/11 08:14:27;;;;;;;6.17;5.67;;;18.80;1.00;;;;;;5121511;28;20478;-83
2023/05/11 08:16:56;;;;;;;4.90;4.40;;;18.60;99.90;;;;;;5121425;28;20510;-83
2023/05/11 08:19:23;;;;;;;5.50;4.43;;;18.70;99.90;;;;;;5120422;28;20464;-85
2023/05/11 08:21:51;;;;;;;4.70;4.30;;;18.80;99.90;;;;;;5120257;28;20504;-87
2023/05/11 08:24:18;;;;;;;5.20;4.80;;;18.80;99.90;;;;;;5115145;28;20458;-86
2023/05/11 08:26:46;;;;;;;5.63;4.93;;;18.90;99.90;;;;;;5108945;28;20502;-85
2023/05/11 08:29:13;;;;;;;5.80;5.20;;;19.00;99.90;;;;;;5107422;28;20436;-85
2023/05/11 08:31:39;;;;;;;8.20;5.80;;;19.10;99.90;;;;;;5108746;28;20996;-85
2023/05/11 08:34:08;;;;;;;5.20;4.13;;;19.20;99.90;;;;;;5106561;28;20558;-84
2023/05/11 08:36:35;;;;;;;4.57;4.17;;;19.20;99.90;;;;;;5113841;28;21089;-86
2023/05/11 08:39:02;;;;;;;5.37;4.93;;;19.20;99.90;;;;;;5117792;28;20478;-87
2023/05/11 08:41:29;;;;;;;6.13;4.37;;;19.30;99.90;;;;;;5107433;28;20521;-87
2023/05/11 08:43:59;;;;;;;27.73;16.70;;;19.20;99.90;;;;;;5107023;28;20452;-86
2023/05/11 08:46:29;;;;;;;6.17;5.60;;;19.30;99.90;;;;;;5105197;28;20466;-86
2023/05/11 08:48:57;;;;;;;5.90;4.60;;;19.60;1.00;;;;;;5106710;28;20460;-86
2023/05/11 08:51:27;;;;;;;4.73;4.33;;;19.70;1.00;;;;;;5107600;28;20455;-86
2023/05/11 08:53:56;;;;;;;6.93;4.03;;;19.50;99.90;;;;;;5118436;28;21037;-86
2023/05/11 08:56:26;;;;;;;4.37;4.07;;;19.60;99.90;;;;;;5118280;28;20490;-85
2023/05/11 08:58:55;;;;;;;5.23;4.73;;;19.60;99.90;;;;;;5117774;28;20420;-85
2023/05/11 09:01:23;;;;;;;4.43;3.80;;;19.60;99.90;;;;;;5112217;28;20520;-86
2023/05/11 09:03:53;;;;;;;4.80;4.50;;;19.70;99.90;;;;;;5110810;28;20467;-87
2023/05/11 09:06:21;;;;;;;5.30;4.90;;;19.70;99.90;;;;;;5117653;28;20503;-84
2023/05/11 09:08:50;;;;;;;4.60;4.10;;;19.80;99.90;;;;;;5121754;28;20455;-84
2023/05/11 09:11:18;;;;;;;4.87;4.47;;;19.80;99.90;;;;;;5121601;28;20443;-83
2023/05/11 09:13:45;;;;;;;10.80;6.07;;;19.90;99.90;;;;;;5129311;22;20488;-84
2023/05/11 09:16:12;;;;;;;4.87;4.47;;;20.00;99.90;;;;;;5105430;28;20520;-83
2023/05/11 09:18:46;;;;;;;8.70;3.60;;;20.00;99.90;;;;;;5109545;28;20470;-83
2023/05/11 09:21:13;;;;;;;5.07;4.40;;;20.10;99.90;;;;;;5111172;28;20428;-82
2023/05/11 09:23:40;;;;;;;5.20;4.70;;;20.10;99.90;;;;;;5107862;28;20555;-83
2023/05/11 09:26:15;;;;;;;7.03;4.07;;;20.10;99.90;;;;;;5105889;28;20535;-83
2023/05/11 09:28:49;;;;;;;5.37;3.67;;;20.20;99.90;;;;;;5104696;28;20466;-83
2023/05/11 09:31:36;;;;;;;5.60;3.60;;;20.20;99.90;;;;;;5102484;28;20443;-84
2023/05/11 09:34:11;;;;;;;6.03;4.20;;;20.30;99.90;;;;;;5102082;28;20468;-84
2023/05/11 09:36:37;;;;;;;3.60;3.40;;;20.40;99.90;;;;;;5102311;28;21071;-84
2023/05/11 09:39:05;;;;;;;5.40;4.00;;;20.50;99.90;;;;;;5102540;28;20494;-84
2023/05/11 09:41:33;;;;;;;6.10;4.23;;;20.60;99.90;;;;;;5102962;28;20455;-84
2023/05/11 09:44:10;;;;;;;8.50;4.30;;;20.70;99.90;;;;;;5104585;28;20547;-83
2023/05/11 09:46:38;;;;;;;11.20;4.20;;;20.80;99.90;;;;;;5107318;28;20890;-84
2023/05/11 09:49:10;;;;;;;4.67;4.27;;;20.70;99.90;;;;;;5110369;28;20511;-84
2023/05/11 09:51:39;;;;;;;4.20;3.90;;;20.70;99.90;;;;;;5111008;28;20437;-83
2023/05/11 09:54:17;;;;;;;4.20;3.80;;;20.80;99.90;;;;;;5109192;28;20472;-83
2023/05/11 09:56:47;;;;;;;13.83;4.50;;;20.90;99.90;;;;;;5109357;28;20471;-83
2023/05/11 09:59:36;;;;;;;8.20;4.80;;;20.70;99.90;;;;;;5106524;28;20493;-83
2023/05/11 10:02:17;;;;;;;3.27;3.07;;;20.80;99.90;;;;;;5103859;28;20437;-84
2023/05/11 10:04:44;;;;;;;4.00;3.63;;;20.70;99.90;;;;;;5103112;28;20468;-83
2023/05/11 10:07:10;;;;;;;3.50;3.20;;;20.80;99.90;;;;;;5103897;28;20446;-84
2023/05/11 10:09:38;;;;;;;3.53;3.30;;;20.80;99.90;;;;;;5101818;28;20444;-85
2023/05/11 10:12:08;;;;;;;5.23;3.50;;;21.20;1.00;;;;;;5102708;28;20471;-83
2023/05/11 10:14:35;;;;;;;3.90;3.60;;;20.80;99.90;;;;;;5101988;28;20468;-84
2023/05/11 10:17:04;;;;;;;3.17;2.97;;;20.80;99.90;;;;;;5101587;28;20495;-85
2023/05/11 10:19:32;;;;;;;5.87;3.77;;;20.90;99.90;;;;;;5102087;28;20453;-83
2023/05/11 10:22:00;;;;;;;3.10;2.90;;;20.90;99.90;;;;;;5102977;28;20441;-84
2023/05/11 10:24:27;;;;;;;4.00;3.70;;;21.20;1.00;;;;;;5101086;28;20493;-83
2023/05/11 10:26:56;;;;;;;3.33;3.07;;;21.20;99.90;;;;;;5101911;28;20550;-84
2023/05/11 10:29:25;;;;;;;8.80;3.13;;;21.40;99.90;;;;;;5102036;28;20535;-83
2023/05/11 10:31:53;;;;;;;3.67;3.47;;;21.60;99.90;;;;;;5101253;28;20535;-84
2023/05/11 10:34:22;;;;;;;4.53;3.83;;;21.70;99.90;;;;;;5102965;28;20527;-83
2023/05/11 10:36:49;;;;;;;4.00;3.63;;;21.70;99.90;;;;;;5101104;28;20487;-83
2023/05/11 10:39:16;;;;;;;4.37;3.17;;;21.70;99.90;;;;;;5101646;28;20441;-83
2023/05/11 10:41:52;;;;;;;3.63;3.33;;;21.70;99.90;;;;;;5101252;28;20882;-84
2023/05/11 10:44:48;;;;;;;6.20;3.40;;;21.70;99.90;;;;;;5104179;28;20546;-85
2023/05/11 10:47:46;;;;;;;3.50;3.23;;;21.60;99.90;;;;;;5103123;28;20994;-82
2023/05/11 10:50:34;;;;;;;8.10;4.17;;;21.50;99.90;;;;;;5086816;28;20444;-82
2023/05/11 10:53:28;;;;;;;4.10;3.70;;;21.50;99.90;;;;;;5109392;28;20445;-81
2023/05/11 10:56:19;;;;;;;4.87;3.97;;;21.80;99.90;;;;;;5105556;28;20957;-83
2023/05/11 10:59:06;;;;;;;3.60;3.30;;;22.00;99.90;;;;;;5105241;28;20438;-83
2023/05/11 11:01:41;;;;;;;3.00;2.80;;;22.10;99.90;;;;;;5106223;28;20431;-85
2023/05/11 11:04:09;;;;;;;5.67;3.50;;;22.10;99.90;;;;;;5105875;28;21002;-82
2023/05/11 11:06:37;;;;;;;3.60;3.30;;;22.20;99.90;;;;;;5107394;28;20524;-83
2023/05/11 11:09:06;;;;;;;3.17;2.97;;;22.30;99.90;;;;;;5112346;28;20440;-82
2023/05/11 11:11:37;;;;;;;4.47;3.77;;;22.00;99.90;;;;;;5116425;28;20440;-81
2023/05/11 11:14:05;;;;;;;4.10;3.70;;;22.00;99.90;;;;;;5101935;28;20849;-84
2023/05/11 11:16:33;;;;;;;3.90;3.60;;;22.10;99.90;;;;;;5102535;28;20503;-84
2023/05/11 11:19:40;;;;;;;4.27;3.43;;;22.10;99.90;;;;;;5099718;28;21007;-84
2023/05/11 11:22:45;;;;;;;6.60;3.70;;;22.20;99.90;;;;;;5099218;28;20424;-83
2023/05/11 11:25:13;;;;;;;3.03;2.83;;;22.20;99.90;;;;;;5108742;28;20443;-82
2023/05/11 11:27:58;;;;;;;3.23;3.03;;;21.60;1.00;;;;;;5119162;28;20491;-81
2023/05/11 11:30:27;;;;;;;4.10;3.70;;;21.80;99.90;;;;;;5118988;28;20450;-79
2023/05/11 11:32:56;;;;;;;7.87;4.60;;;21.60;99.90;;;;;;5118611;28;20428;-82
2023/05/11 11:35:44;;;;;;;4.17;3.83;;;21.60;99.90;;;;;;5113919;28;20450;-83
2023/05/11 11:38:15;;;;;;;3.97;3.20;;;21.60;99.90;;;;;;5105787;28;20472;-84
2023/05/11 11:40:43;;;;;;;4.07;3.67;;;21.50;99.90;;;;;;5099282;28;20513;-84
2023/05/11 11:43:11;;;;;;;3.10;2.90;;;21.40;99.90;;;;;;5099565;28;20452;-84
2023/05/11 11:45:39;;;;;;;4.33;3.50;;;21.40;99.90;;;;;;5099106;28;20471;-84
2023/05/11 11:48:14;;;;;;;5.97;3.40;;;21.30;99.90;;;;;;5099947;28;20443;-83
2023/05/11 11:50:42;;;;;;;3.57;3.03;;;21.30;99.90;;;;;;5099990;28;20522;-83
2023/05/11 11:54:07;;;;;;;3.40;2.77;;;21.30;1.00;;;;;;5103832;28;20498;-82
2023/05/11 11:56:45;;;;;;;4.17;3.77;;;21.10;99.90;;;;;;5105806;28;20469;-82
2023/05/11 11:59:13;;;;;;;5.10;2.47;;;21.00;99.90;;;;;;5101995;28;20421;-84
2023/05/11 12:01:41;;;;;;;2.57;1.90;;;20.90;99.90;;;;;;5101329;28;20461;-84
2023/05/11 12:04:40;;;;;;;2.70;2.50;;;20.90;99.90;;;;;;5101741;28;20551;-83
2023/05/11 12:07:10;;;;;;;3.40;3.10;;;21.40;99.90;;;;;;5076780;28;20461;-83
2023/05/11 12:09:40;;;;;;;5.10;2.80;;;21.40;99.90;;;;;;5100522;28;20875;-83
2023/05/11 12:12:09;;;;;;;3.50;3.20;;;21.70;99.90;;;;;;5100077;28;20436;-84
2023/05/11 12:14:37;;;;;;;2.43;2.27;;;21.90;99.90;;;;;;5107774;28;20480;-82
2023/05/11 12:17:07;;;;;;;2.83;2.60;;;22.10;99.90;;;;;;5111462;28;20531;-82
2023/05/11 12:19:34;;;;;;;3.00;2.70;;;22.10;99.90;;;;;;5111330;28;20561;-83
2023/05/11 12:22:01;;;;;;;6.17;5.40;;;21.90;99.90;;;;;;5100918;28;20445;-83
2023/05/11 12:24:28;;;;;;;2.93;2.60;;;21.90;99.90;;;;;;5105951;28;20456;-83
2023/05/11 12:26:58;;;;;;;4.23;2.83;;;21.90;99.90;;;;;;5106682;28;20530;-83
2023/05/11 12:29:26;;;;;;;3.63;2.00;;;21.80;99.90;;;;;;5105584;28;20464;-83
2023/05/11 12:31:54;;;;;;;3.10;2.67;;;21.70;99.90;;;;;;5107304;28;20484;-83
2023/05/11 12:34:22;;;;;;;3.73;2.93;;;21.70;99.90;;;;;;5112620;28;20531;-83
2023/05/11 12:36:51;;;;;;;3.10;2.90;;;21.70;99.90;;;;;;5114426;28;20543;-83
2023/05/11 12:39:19;;;;;;;10.00;2.37;;;21.80;99.90;;;;;;5117415;28;20465;-82
2023/05/11 12:41:48;;;;;;;10.27;3.17;;;21.80;99.90;;;;;;5118850;28;20512;-82
2023/05/11 12:44:16;;;;;;;4.40;2.63;;;21.80;99.90;;;;;;5115843;28;20472;-82
2023/05/11 12:46:46;;;;;;;6.50;3.17;;;21.60;99.90;;;;;;5107921;28;20440;-83
2023/05/11 12:49:16;;;;;;;3.17;2.87;;;21.50;99.90;;;;;;5102781;28;20950;-83
2023/05/11 12:51:47;;;;;;;3.30;2.70;;;21.40;99.90;;;;;;5109058;28;20446;-83
2023/05/11 12:54:28;;;;;;;3.03;2.50;;;21.40;99.90;;;;;;5108166;28;20978;-83
2023/05/11 12:56:55;;;;;;;3.07;2.87;;;21.50;99.90;;;;;;5105566;28;20495;-84
2023/05/11 12:59:33;;;;;;;4.93;2.63;;;21.70;99.90;;;;;;5105001;28;20444;-83
2023/05/11 13:02:14;;;;;;;4.73;3.37;;;22.00;99.90;;;;;;5104013;28;20427;-83
2023/05/11 13:04:42;;;;;;;8.23;3.20;;;22.30;99.90;;;;;;5105394;28;20489;-83